createdAt,value
2023-02-27T00:01:35.984Z,4.27
2023-02-27T00:06:37.386Z,4.40
2023-02-27T00:11:38.847Z,4.60
2023-02-27T00:16:40.240Z,3.43
2023-02-27T00:21:41.759Z,3.87
2023-02-27T00:26:43.118Z,4.10
2023-02-27T00:31:44.649Z,5.07
2023-02-27T00:36:46.048Z,4.47
2023-02-27T00:41:47.390Z,4.63
2023-02-27T00:46:48.833Z,4.87
2023-02-27T00:51:50.225Z,4.67
2023-02-27T00:56:51.631Z,4.67
2023-02-27T01:01:53.136Z,4.20
2023-02-27T01:06:54.574Z,3.67
2023-02-27T01:11:57.475Z,5.10
2023-02-27T01:16:58.900Z,4.37
2023-02-27T01:22:00.293Z,3.93
2023-02-27T01:27:01.831Z,4.67
2023-02-27T01:32:03.428Z,4.00
2023-02-27T01:37:04.896Z,3.83
2023-02-27T01:42:13.249Z,4.10
2023-02-27T01:47:14.639Z,5.27
2023-02-27T01:52:16.325Z,4.97
2023-02-27T01:57:17.748Z,4.43
2023-02-27T02:02:28.087Z,4.77
2023-02-27T02:07:29.792Z,4.23
2023-02-27T02:12:35.756Z,4.53
2023-02-27T02:17:44.129Z,4.40
2023-02-27T02:22:45.439Z,4.90
2023-02-27T02:28:05.942Z,4.23
2023-02-27T02:33:25.056Z,3.97
2023-02-27T02:38:26.379Z,4.30
2023-02-27T02:43:31.118Z,4.33
2023-02-27T02:48:40.668Z,4.17
2023-02-27T02:53:45.405Z,4.47
2023-02-27T02:58:56.206Z,5.03
2023-02-27T03:04:02.318Z,4.40
2023-02-27T03:09:24.024Z,4.40
2023-02-27T03:14:28.096Z,4.20
2023-02-27T03:19:55.911Z,4.07
2023-02-27T03:24:58.303Z,4.17
2023-02-27T03:30:07.332Z,4.63
2023-02-27T03:35:09.128Z,4.17
2023-02-27T03:40:30.309Z,4.10
2023-02-27T03:45:50.041Z,4.53
2023-02-27T03:50:51.592Z,5.50
2023-02-27T03:55:53.437Z,4.67
2023-02-27T04:00:55.323Z,4.97
2023-02-27T04:05:56.755Z,4.00
2023-02-27T04:11:10.484Z,3.83
2023-02-27T04:16:24.169Z,4.20
2023-02-27T04:21:49.099Z,5.10
2023-02-27T04:26:57.089Z,4.60
2023-02-27T04:32:04.491Z,4.20
2023-02-27T04:37:11.924Z,4.27
2023-02-27T04:47:38.550Z,4.07
2023-02-27T04:52:45.054Z,3.88
2023-02-27T04:57:59.427Z,4.10
2023-02-27T05:08:22.442Z,4.00
2023-02-27T05:13:35.806Z,4.97
2023-02-27T05:18:37.262Z,4.73
2023-02-27T05:23:47.712Z,5.80
2023-02-27T05:28:51.860Z,4.93
2023-02-27T05:34:02.029Z,5.10
2023-02-27T05:39:05.601Z,5.27
2023-02-27T05:44:10.262Z,4.50
2023-02-27T05:49:26.297Z,7.40
2023-02-27T05:54:38.332Z,8.27
2023-02-27T05:59:54.451Z,6.40
2023-02-27T06:04:55.933Z,5.90
2023-02-27T06:09:57.402Z,6.30
2023-02-27T06:14:58.790Z,5.67
2023-02-27T06:20:00.179Z,5.10
2023-02-27T06:25:01.668Z,5.87
2023-02-27T06:30:03.266Z,5.43
2023-02-27T06:35:06.332Z,6.40
2023-02-27T06:40:11.822Z,5.50
2023-02-27T06:45:13.739Z,6.23
2023-02-27T06:50:15.268Z,7.07
2023-02-27T06:55:22.628Z,6.03
2023-02-27T07:00:24.130Z,6.37
2023-02-27T07:05:26.054Z,5.53
2023-02-27T07:10:27.521Z,5.03
2023-02-27T07:15:28.916Z,5.40
2023-02-27T07:20:30.402Z,5.10
2023-02-27T07:25:31.766Z,5.23
2023-02-27T07:30:33.410Z,3.90
2023-02-27T07:35:34.902Z,3.00
2023-02-27T07:40:36.337Z,13.47
2023-02-27T07:45:37.703Z,3.47
2023-02-27T07:50:39.084Z,3.90
2023-02-27T07:55:40.446Z,4.30
2023-02-27T08:00:41.922Z,4.60
2023-02-27T08:05:43.260Z,3.27
2023-02-27T08:10:44.804Z,3.20
2023-02-27T08:15:46.413Z,3.23
2023-02-27T08:20:47.816Z,3.40
2023-02-27T08:25:49.344Z,3.10
2023-02-27T08:30:50.837Z,3.20
2023-02-27T08:35:54.401Z,3.43
2023-02-27T08:40:55.856Z,3.50
2023-02-27T08:45:57.340Z,2.87
2023-02-27T08:50:58.735Z,2.93
2023-02-27T08:56:00.165Z,3.33
2023-02-27T09:01:01.974Z,3.30
2023-02-27T09:06:03.457Z,2.93
2023-02-27T09:11:05.108Z,3.20
2023-02-27T09:16:06.803Z,2.90
2023-02-27T09:21:08.213Z,3.37
2023-02-27T09:26:09.660Z,2.83
2023-02-27T09:31:12.078Z,2.23
2023-02-27T09:36:13.683Z,2.53
2023-02-27T09:41:28.580Z,2.90
2023-02-27T09:46:30.466Z,2.60
2023-02-27T09:51:31.994Z,2.57
2023-02-27T09:56:36.248Z,2.63
2023-02-27T10:01:42.627Z,2.15
2023-02-27T10:06:50.239Z,2.13
2023-02-27T10:11:57.524Z,2.40
2023-02-27T10:17:02.245Z,2.30
2023-02-27T10:22:05.930Z,2.85
2023-02-27T10:27:13.200Z,2.25
2023-02-27T10:32:33.301Z,2.65
2023-02-27T10:37:36.189Z,2.08
2023-02-27T10:42:40.705Z,2.47
2023-02-27T10:47:43.046Z,2.05
2023-02-27T10:52:55.858Z,2.38
2023-02-27T10:57:58.236Z,2.30
2023-02-27T11:02:59.968Z,1.90
2023-02-27T11:08:12.183Z,1.98
2023-02-27T11:13:21.773Z,1.27
2023-02-27T11:18:29.143Z,1.00
2023-02-27T11:23:32.571Z,1.05
2023-02-27T11:28:34.516Z,1.05
2023-02-27T11:33:39.823Z,1.00
2023-02-27T11:38:41.387Z,0.50
2023-02-27T11:43:52.463Z,0.50
2023-02-27T13:56:21.346Z,1.08
2023-02-27T14:01:27.206Z,0.57
2023-02-27T14:06:29.258Z,0.60
2023-02-27T14:11:39.703Z,0.30
2023-02-27T14:16:41.074Z,0.52
2023-02-27T14:21:51.647Z,0.55
2023-02-27T14:26:53.440Z,0.70
2023-02-27T14:31:55.907Z,0.60
2023-02-27T14:36:59.600Z,1.08
2023-02-27T14:42:22.185Z,0.67
2023-02-27T14:47:36.856Z,0.93
2023-02-27T14:52:42.563Z,2.65
2023-02-27T14:57:53.877Z,0.60
2023-02-27T15:02:55.460Z,0.68
2023-02-27T15:07:56.896Z,0.82
2023-02-27T15:12:59.853Z,0.90
2023-02-27T15:18:01.235Z,2.10
2023-02-27T15:23:21.966Z,1.90
2023-02-27T15:28:26.312Z,1.38
2023-02-27T15:33:29.712Z,1.13
2023-02-27T15:38:33.150Z,1.10
2023-02-27T15:43:34.499Z,1.20
2023-02-27T15:48:36.061Z,0.93
2023-02-27T15:53:42.796Z,1.10
2023-02-27T15:58:50.426Z,1.63
2023-02-27T16:03:53.605Z,1.73
2023-02-27T16:08:59.483Z,1.27
2023-02-27T16:14:01.325Z,1.60
2023-02-27T16:19:22.660Z,1.20
2023-02-27T16:24:31.780Z,2.03
2023-02-27T16:29:44.787Z,1.95
2023-02-27T16:34:46.651Z,1.17
2023-02-27T16:39:49.147Z,2.20
2023-02-27T16:44:50.532Z,1.63
2023-02-27T16:49:51.902Z,1.75
2023-02-27T16:54:53.225Z,2.70
2023-02-27T16:59:54.546Z,3.47
2023-02-27T17:04:55.958Z,2.10
2023-02-27T17:09:57.477Z,2.45
2023-02-27T17:14:58.935Z,3.17
2023-02-27T17:20:00.234Z,4.97
2023-02-27T17:25:01.585Z,7.35
2023-02-27T17:30:03.617Z,9.32
2023-02-27T17:35:05.281Z,8.77
2023-02-27T17:40:08.187Z,9.75
2023-02-27T17:45:10.037Z,10.60
2023-02-27T17:50:11.555Z,7.93
2023-02-27T17:55:14.244Z,4.95
2023-02-27T18:00:15.744Z,5.60
2023-02-27T18:05:18.133Z,7.35
2023-02-27T18:10:19.699Z,7.93
2023-02-27T18:15:21.007Z,5.90
2023-02-27T18:20:22.338Z,4.68
2023-02-27T18:25:23.700Z,3.90
2023-02-27T18:30:25.134Z,3.60
2023-02-27T18:35:26.615Z,4.55
2023-02-27T18:40:28.110Z,4.57
2023-02-27T18:45:32.290Z,5.70
2023-02-27T18:50:33.772Z,5.72
2023-02-27T18:55:35.180Z,6.22
2023-02-27T19:00:36.493Z,6.25
2023-02-27T19:05:41.826Z,6.55
2023-02-27T19:10:43.598Z,6.47
2023-02-27T19:15:45.041Z,6.80
2023-02-27T19:20:46.513Z,7.22
2023-02-27T19:25:48.936Z,8.63
2023-02-27T19:30:50.343Z,12.15
2023-02-27T19:35:51.687Z,8.63
2023-02-27T19:40:53.074Z,6.60
2023-02-27T19:45:54.467Z,5.25
2023-02-27T19:50:55.834Z,6.32
2023-02-27T19:56:01.514Z,5.10
2023-02-27T20:01:04.108Z,4.93
2023-02-27T20:06:05.787Z,4.55
2023-02-27T20:11:07.154Z,9.30
2023-02-27T20:16:09.434Z,10.45
2023-02-27T20:21:14.961Z,11.55
2023-02-27T20:26:31.092Z,13.68
2023-02-27T20:31:34.784Z,9.68
2023-02-27T20:36:36.973Z,6.95
2023-02-27T20:41:40.199Z,9.03
2023-02-27T20:46:43.336Z,4.30
2023-02-27T20:51:45.099Z,5.00
2023-02-27T20:56:47.511Z,5.03
2023-02-27T21:01:51.844Z,4.73
2023-02-27T21:06:54.601Z,5.07
2023-02-27T21:11:56.103Z,4.43
2023-02-27T21:16:57.511Z,4.03
2023-02-27T21:21:58.926Z,4.90
2023-02-27T21:27:00.256Z,4.43
2023-02-27T21:32:01.647Z,5.17
2023-02-27T21:37:05.860Z,5.77
2023-02-27T21:42:07.496Z,4.80
2023-02-27T21:47:09.835Z,4.50
2023-02-27T21:52:11.192Z,4.70
2023-02-27T21:57:13.562Z,4.37
2023-02-27T22:02:14.931Z,5.93
2023-02-27T22:07:16.297Z,4.60
2023-02-27T22:12:18.009Z,4.90
2023-02-27T22:17:19.334Z,4.63
2023-02-27T22:22:20.754Z,4.67
2023-02-27T22:27:22.678Z,4.87
2023-02-27T22:32:24.057Z,3.97
2023-02-27T22:37:25.622Z,4.50
2023-02-27T22:42:27.246Z,4.57
2023-02-27T22:47:28.765Z,5.33
2023-02-27T22:52:30.364Z,4.50
2023-02-27T22:57:31.702Z,4.97
2023-02-27T23:02:33.828Z,4.93
2023-02-27T23:07:35.202Z,4.80
2023-02-27T23:12:36.702Z,5.10
2023-02-27T23:17:49.244Z,5.40
2023-02-27T23:22:54.231Z,5.57
2023-02-27T23:27:55.653Z,5.30
2023-02-27T23:32:57.381Z,4.83
2023-02-27T23:37:59.098Z,5.50
2023-02-27T23:43:00.475Z,4.70
2023-02-27T23:48:02.007Z,5.90
2023-02-27T23:53:04.277Z,5.77
2023-02-27T23:58:06.807Z,6.03
